Time;durP1;ratioP1;P1;durP2;ratioP2;P2;SDS_P1;SDS_P2;PMS_P1;PMS_P2;Temp;Humidity;BMP_temperature;BMP_pressure;BME280_temperature;BME280_humidity;BME280_pressure;Samples;Min_cycle;Max_cycle;Signal;HPM_P1;HPM_P2
2023/01/02 00:00:47;;;;;;;;;;;;;;;;;;2040179;29;20038;-88
2023/01/02 00:01:48;;;;;;;36.05;21.13;;;;;;;;;;2039100;29;19911;-88
2023/01/02 00:02:48;;;;;;;;;;;;;;;;;;2040160;29;20078;-88
2023/01/02 00:03:48;;;;;;;38.08;20.92;;;;;;;;;;2039239;29;20001;-88
2023/01/02 00:04:49;;;;;;;;;;;;;;;;;;2039416;29;20091;-88
2023/01/02 00:05:49;;;;;;;32.15;18.58;;;;;;;;;;2039799;29;19911;-88
2023/01/02 00:06:49;;;;;;;56.85;29.02;;;;;;;;;;2039097;29;20032;-88
2023/01/02 00:07:50;;;;;;;;;;;;;;;;;;2039691;29;20055;-88
2023/01/02 00:08:50;;;;;;;45.17;21.63;;;;;;;;;;2039849;29;19946;-87
2023/01/02 00:09:50;;;;;;;60.25;29.35;;;;;;;;;;2039003;29;20047;-87
2023/01/02 00:10:51;;;;;;;;;;;;;;;;;;2039554;29;20031;-86
2023/01/02 00:11:51;;;;;;;42.60;22.25;;;;;;;;;;2039019;29;20381;-87
2023/01/02 00:12:51;;;;;;;;;;;;;;;;;;2039724;29;20058;-87
2023/01/02 00:13:52;;;;;;;40.95;19.85;;;;;;;;;;2039933;29;19911;-87
2023/01/02 00:14:52;;;;;;;;;;;;;;;;;;2043321;29;20019;-86
2023/01/02 00:15:52;;;;;;;30.30;14.57;;;;;;;;;;2049005;29;19953;-86
2023/01/02 00:16:53;;;;;;;31.23;18.65;;;;;;;;;;2047203;28;20115;-86
2023/01/02 00:17:53;;;;;;;;;;;;;;;;;;2046535;29;20024;-86
2023/01/02 00:18:53;;;;;;;29.30;15.30;;;;;;;;;;2049981;28;19918;-88
2023/01/02 00:19:55;;;;;;;36.90;19.83;;;;;;;;;;2040544;29;20032;-87
2023/01/02 00:20:55;;;;;;;38.78;20.40;;;;;;;;;;2039308;29;20142;-87
2023/01/02 00:21:55;;;;;;;;;;;;;;;;;;2039593;29;20028;-86
2023/01/02 00:22:56;;;;;;;28.42;14.70;;;;;;;;;;2046857;28;20338;-87
2023/01/02 00:23:56;;;;;;;;;;;;;;;;;;2040263;29;20082;-87
2023/01/02 00:24:57;;;;;;;30.10;15.05;;;;;;;;;;2040349;29;19918;-86
2023/01/02 00:25:57;;;;;;;;;;;;;;;;;;2050392;29;20043;-86
2023/01/02 00:26:57;;;;;;;27.73;13.73;;;;;;;;;;2048729;29;19947;-88
2023/01/02 00:27:58;;;;;;;;;;;;;;;;;;2041346;29;20106;-87
2023/01/02 00:29:00;;;;;;;33.25;16.63;;;;;;;;;;2039843;29;19914;-87
2023/01/02 00:30:00;;;;;;;44.97;22.83;;;;;;;;;;2039577;29;20416;-87
2023/01/02 00:31:07;;;;;;;;;;;;;;;;;;2040044;29;20043;-87
2023/01/02 00:32:08;;;;;;;31.25;16.90;;;;;;;;;;2038832;29;20132;-87
2023/01/02 00:33:08;;;;;;;;;;;;;;;;;;2039445;29;20044;-88
2023/01/02 00:34:08;;;;;;;34.50;15.93;;;;;;;;;;2039032;29;19911;-87
2023/01/02 00:35:09;;;;;;;;;;;;;;;;;;2046879;28;20019;-86
2023/01/02 00:36:11;;;;;;;34.40;15.68;;;;;;;;;;2049481;28;19982;-87
2023/01/02 00:37:12;;;;;;;32.10;18.25;;;;;;;;;;2049526;29;20132;-87
2023/01/02 00:38:12;;;;;;;;;;;;;;;;;;2044514;29;20027;-86
2023/01/02 00:39:12;;;;;;;29.00;15.17;;;;;;;;;;2040545;29;19982;-87
2023/01/02 00:40:12;;;;;;;;;;;;;;;;;;2031966;29;20056;-87
2023/01/02 00:41:13;;;;;;;23.52;13.00;;;;;;;;;;2039183;29;20427;-88
2023/01/02 00:42:13;;;;;;;47.78;23.95;;;;;;;;;;2038848;29;20055;-87
2023/01/02 00:43:15;;;;;;;;;;;;;;;;;;2047243;29;20511;-87
2023/01/02 00:44:15;;;;;;;37.40;16.40;;;;;;;;;;2038866;29;20374;-88
2023/01/02 00:45:16;;;;;;;;;;;;;;;;;;2039344;29;20063;-87
2023/01/02 00:46:17;;;;;;;38.05;18.58;;;;;;;;;;2031215;29;20465;-87
2023/01/02 00:47:18;;;;;;;49.85;23.88;;;;;;;;;;2038955;29;20043;-87
2023/01/02 00:48:18;;;;;;;;;;;;;;;;;;2039399;29;20125;-87
2023/01/02 00:49:18;;;;;;;36.17;18.77;;;;;;;;;;2039156;29;19953;-87
2023/01/02 00:50:19;;;;;;;;;;;;;;;;;;2039914;29;20502;-87
2023/01/02 00:51:20;;;;;;;41.00;18.55;;;;;;;;;;2038523;29;19950;-87
2023/01/02 00:52:20;;;;;;;;;;;;;;;;;;2039634;29;20063;-87
2023/01/02 00:53:21;;;;;;;27.03;15.13;;;;;;;;;;2039780;29;20410;-87
2023/01/02 00:54:22;;;;;;;49.61;21.24;;;;;;;;;;1699828;28;10001822;-87
2023/01/02 00:55:22;;;;;;;;;;;;;;;;;;2047397;29;20043;-87
2023/01/02 00:56:22;;;;;;;43.08;20.70;;;;;;;;;;2046727;29;20009;-87
2023/01/02 00:57:23;;;;;;;53.95;26.58;;;;;;;;;;2046914;29;20110;-87
2023/01/02 00:58:23;;;;;;;;;;;;;;;;;;2039899;29;20027;-87
2023/01/02 00:59:23;;;;;;;34.65;16.67;;;;;;;;;;2039207;29;19950;-86
2023/01/02 01:00:23;;;;;;;;;;;;;;;;;;2040787;29;20038;-86
2023/01/02 01:01:24;;;;;;;36.75;17.52;;;;;;;;;;2042309;29;19911;-87
2023/01/02 01:02:24;;;;;;;;;;;;;;;;;;2043275;29;20027;-87
2023/01/02 01:03:24;;;;;;;46.75;17.38;;;;;;;;;;2041012;29;20046;-87
2023/01/02 01:04:26;;;;;;;34.35;19.63;;;;;;;;;;2032959;29;20114;-87
2023/01/02 01:05:28;;;;;;;46.72;24.63;;;;;;;;;;2040742;29;20031;-88
2023/01/02 01:06:28;;;;;;;40.03;22.63;;;;;;;;;;2040635;29;20127;-87
2023/01/02 01:07:29;;;;;;;;;;;;;;;;;;2041192;29;20039;-87
2023/01/02 01:08:29;;;;;;;41.17;19.70;;;;;;;;;;2040907;29;19958;-87
2023/01/02 01:09:29;;;;;;;37.28;18.60;;;;;;;;;;2032798;29;20095;-87
2023/01/02 01:10:30;;;;;;;;;;;;;;;;;;2040898;29;20039;-87
2023/01/02 01:11:30;;;;;;;27.48;15.57;;;;;;;;;;2040624;29;20006;-87
2023/01/02 01:12:30;;;;;;;;;;;;;;;;;;2040878;29;20126;-87
2023/01/02 01:13:31;;;;;;;20.73;11.70;;;;;;;;;;2040332;29;20362;-88
2023/01/02 01:14:31;;;;;;;;;;;;;;;;;;2041631;29;20032;-87
2023/01/02 01:15:32;;;;;;;26.75;14.93;;;;;;;;;;2048023;28;19914;-87
2023/01/02 01:16:33;;;;;;;25.85;15.18;;;;;;;;;;2040324;29;20034;-87
2023/01/02 01:17:33;;;;;;;;;;;;;;;;;;2040699;29;20494;-86
2023/01/02 01:18:34;;;;;;;26.23;15.27;;;;;;;;;;2048378;29;19910;-86
2023/01/02 01:19:35;;;;;;;41.45;19.33;;;;;;;;;;2048074;28;20149;-87
2023/01/02 01:20:38;;;;;;;;;;;;;;;;;;2040722;29;20035;-85
2023/01/02 01:21:38;;;;;;;29.48;15.50;;;;;;;;;;2040165;29;20376;-86
2023/01/02 01:22:39;;;;;;;;;;;;;;;;;;2040730;29;20016;-86
2023/01/02 01:23:39;;;;;;;22.45;14.70;;;;;;;;;;2048205;29;19953;-87
2023/01/02 01:24:39;;;;;;;;;;;;;;;;;;2041680;29;20036;-86
2023/01/02 01:25:40;;;;;;;28.33;15.27;;;;;;;;;;2040983;29;20124;-87
2023/01/02 01:26:40;;;;;;;;;;;;;;;;;;2041589;29;20110;-87
2023/01/02 01:27:41;;;;;;;31.73;15.50;;;;;;;;;;2040821;29;19917;-87
2023/01/02 01:28:41;;;;;;;;;;;;;;;;;;2040666;29;20035;-86
2023/01/02 01:29:41;;;;;;;21.83;14.82;;;;;;;;;;2040175;29;20023;-88
2023/01/02 01:30:42;;;;;;;;;;;;;;;;;;2048602;29;20047;-85
2023/01/02 01:31:42;;;;;;;31.98;15.35;;;;;;;;;;2048029;29;19910;-87
2023/01/02 01:32:42;;;;;;;;;;;;;;;;;;2040606;29;20497;-86
2023/01/02 01:33:44;;;;;;;26.75;14.95;;;;;;;;;;2040862;29;20033;-86
2023/01/02 01:34:44;;;;;;;34.35;18.20;;;;;;;;;;2040853;29;20455;-86
2023/01/02 01:35:45;;;;;;;;;;;;;;;;;;2041236;29;20043;-86
2023/01/02 01:36:45;;;;;;;27.53;15.17;;;;;;;;;;2040713;29;19962;-86
2023/01/02 01:37:45;;;;;;;;;;;;;;;;;;2041180;29;20034;-87
2023/01/02 01:38:46;;;;;;;32.63;14.68;;;;;;;;;;2040844;29;20018;-88
2023/01/02 01:39:47;;;;;;;25.50;14.88;;;;;;;;;;2040803;29;20039;-88
2023/01/02 01:40:47;;;;;;;;;;;;;;;;;;2040279;29;20487;-86
2023/01/02 01:41:48;;;;;;;22.92;13.45;;;;;;;;;;2040104;29;19946;-87
2023/01/02 01:42:48;;;;;;;;;;;;;;;;;;2041063;29;20159;-86
2023/01/02 01:43:52;;;;;;;26.40;13.45;;;;;;;;;;2039992;29;20416;-85
2023/01/02 01:46:46;;;;;;;32.30;16.27;;;;;;;;;;2086756;23;20122;-95
2023/01/02 01:47:52;;;;;;;33.67;19.23;;;;;;;;;;2033891;29;20411;-93
2023/01/02 01:49:16;;;;;;;32.30;18.45;;;;;;;;;;2037484;29;20036;-94
2023/01/02 01:50:20;;;;;;;25.85;16.00;;;;;;;;;;2034529;29;20036;-93
2023/01/02 01:51:23;;;;;;;34.22;20.17;;;;;;;;;;2042433;29;20375;-93
2023/01/02 01:52:27;;;;;;;25.48;16.63;;;;;;;;;;2041905;29;20059;-93
2023/01/02 01:53:28;;;;;;;29.88;17.23;;;;;;;;;;2038512;29;20055;-91
2023/01/02 01:54:34;;;;;;;;;;;;;;;;;;2050425;29;20446;-90
2023/01/02 01:55:49;;;;;;;18.13;11.23;;;;;;;;;;2050437;29;19914;-95
2023/01/02 01:56:56;;;;;;;28.25;15.75;;;;;;;;;;2043790;29;20027;-94
2023/01/02 01:58:06;;;;;;;30.55;17.38;;;;;;;;;;2049839;28;20437;-93
2023/01/02 01:59:09;;;;;;;31.70;18.13;;;;;;;;;;2050011;29;20057;-93
2023/01/02 02:00:10;;;;;;;32.58;19.48;;;;;;;;;;2042010;29;20453;-93
2023/01/02 02:01:14;;;;;;;31.42;17.80;;;;;;;;;;2049803;29;20042;-93
2023/01/02 02:02:15;;;;;;;29.52;19.05;;;;;;;;;;2049522;29;20058;-93
2023/01/02 02:03:19;;;;;;;37.42;19.98;;;;;;;;;;2049462;29;20027;-93
2023/01/02 02:04:22;;;;;;;35.03;20.08;;;;;;;;;;2049213;29;20050;-92
2023/01/02 02:05:26;;;;;;;38.53;22.27;;;;;;;;;;2041866;29;20027;-92
2023/01/02 02:06:27;;;;;;;41.83;22.33;;;;;;;;;;2041833;29;20406;-93
2023/01/02 02:07:28;;;;;;;49.05;27.45;;;;;;;;;;2049746;29;20035;-93
2023/01/02 02:08:38;;;;;;;;;;;;;;;;;;2049755;29;20118;-93
2023/01/02 02:09:45;;;;;;;43.25;22.98;;;;;;;;;;2042814;29;19966;-92
2023/01/02 02:10:47;;;;;;;51.97;24.75;;;;;;;;;;2042634;29;20075;-93
2023/01/02 02:11:48;;;;;;;52.15;30.73;;;;;;;;;;2048869;28;20573;-93
2023/01/02 02:12:48;;;;;;;51.90;29.25;;;;;;;;;;2049393;29;20082;-93
2023/01/02 02:13:49;;;;;;;;;;;;;;;;;;2042118;29;20023;-93
2023/01/02 02:14:49;;;;;;;36.72;20.27;;;;;;;;;;2041361;29;20039;-93
2023/01/02 02:16:05;;;;;;;;;;;;;;;;;;2049869;29;20035;-93
2023/01/02 02:17:51;;;;;;;45.13;21.63;;;;;;;;;;2051371;29;19929;-93
2023/01/02 02:19:22;;;;;;;46.65;22.63;;;;;;;;;;2041049;29;20088;-93
2023/01/02 02:20:28;;;;;;;;;;;;;;;;;;2055958;28;20015;-94
2023/01/02 02:21:47;;;;;;;31.17;17.17;;;;;;;;;;2048954;28;19992;-94
2023/01/02 02:23:02;;;;;;;40.55;21.88;;;;;;;;;;2051661;28;20024;-93
2023/01/02 02:24:35;;;;;;;48.75;25.48;;;;;;;;;;2049037;29;20035;-94
2023/01/02 02:26:23;;;;;;;34.28;22.52;;;;;;;;;;2053368;28;20126;-95
2023/01/02 02:27:35;;;;;;;34.92;20.33;;;;;;;;;;2019384;29;20048;-95
2023/01/02 02:28:44;;;;;;;43.45;25.42;;;;;;;;;;2042951;29;20038;-94
2023/01/02 02:30:09;;;;;;;50.30;27.60;;;;;;;;;;2042394;29;20570;-94
2023/01/02 02:31:20;;;;;;;41.15;23.42;;;;;;;;;;2044420;29;20034;-93
2023/01/02 02:32:23;;;;;;;;;;;;;;;;;;2043153;29;20035;-93
2023/01/02 02:33:33;;;;;;;33.97;18.73;;;;;;;;;;2049084;29;20009;-94
2023/01/02 02:34:49;;;;;;;37.65;23.35;;;;;;;;;;2049040;29;20027;-94
2023/01/02 02:36:04;;;;;;;43.40;21.52;;;;;;;;;;2043303;29;20134;-94
2023/01/02 02:37:23;;;;;;;45.38;26.08;;;;;;;;;;2043127;29;20083;-94
2023/01/02 02:38:49;;;;;;;38.03;21.48;;;;;;;;;;2043727;29;20039;-94
2023/01/02 02:40:22;;;;;;;34.08;17.58;;;;;;;;;;2044763;29;20023;-93
2023/01/02 02:41:34;;;;;;;29.58;15.05;;;;;;;;;;2045618;29;20433;-94
2023/01/02 02:42:55;;;;;;;28.60;15.52;;;;;;;;;;2042643;29;20455;-95
2023/01/02 02:44:11;;;;;;;25.20;15.55;;;;;;;;;;2043890;29;20490;-94
2023/01/02 02:45:22;;;;;;;30.25;15.95;;;;;;;;;;2051212;28;20351;-93
2023/01/02 02:46:58;;;;;;;32.45;19.35;;;;;;;;;;1879516;28;10002067;-95
2023/01/02 02:48:29;;;;;;;32.00;16.87;;;;;;;;;;2049904;29;20727;-94
2023/01/02 02:49:41;;;;;;;25.63;14.55;;;;;;;;;;2048760;29;20753;-94
2023/01/02 02:50:57;;;;;;;32.90;17.17;;;;;;;;;;2042930;29;20032;-95
2023/01/02 02:52:06;;;;;;;32.03;17.10;;;;;;;;;;2049098;29;20030;-95
2023/01/02 02:53:15;;;;;;;38.63;23.17;;;;;;;;;;2042323;29;20506;-94
2023/01/02 02:54:25;;;;;;;39.33;22.05;;;;;;;;;;2051560;28;20051;-94
2023/01/02 02:55:34;;;;;;;30.33;17.67;;;;;;;;;;2055941;29;20015;-95
2023/01/02 02:56:35;;;;;;;31.63;17.13;;;;;;;;;;2051594;29;20110;-95
2023/01/02 02:57:36;;;;;;;;;;;;;;;;;;2059062;28;20082;-94
2023/01/02 02:58:39;;;;;;;24.65;13.95;;;;;;;;;;2055414;29;19910;-96
2023/01/02 02:59:41;;;;;;;34.08;16.08;;;;;;;;;;2056447;28;20031;-95
2023/01/02 03:00:41;;;;;;;;;;;;;;;;;;2056967;29;20077;-95
2023/01/02 03:01:42;;;;;;;22.60;12.17;;;;;;;;;;2044407;29;20324;-94
2023/01/02 03:02:42;;;;;;;28.25;17.52;;;;;;;;;;2049572;29;20019;-93
2023/01/02 03:03:43;;;;;;;;;;;;;;;;;;2049659;29;20023;-95
2023/01/02 03:04:48;;;;;;;23.42;12.45;;;;;;;;;;2041581;29;19911;-95
2023/01/02 03:06:17;;;;;;;23.38;13.35;;;;;;;;;;2049629;28;20023;-95
2023/01/02 03:07:20;;;;;;;22.02;13.30;;;;;;;;;;2049144;29;20047;-95
2023/01/02 03:08:43;;;;;;;28.77;16.90;;;;;;;;;;2050218;29;20027;-95
2023/01/02 03:09:57;;;;;;;18.75;12.90;;;;;;;;;;2044193;29;20034;-95
2023/01/02 03:11:01;;;;;;;26.33;14.15;;;;;;;;;;2043042;29;20023;-95
2023/01/02 03:12:13;;;;;;;31.67;19.05;;;;;;;;;;2041947;29;20399;-94
2023/01/02 03:13:35;;;;;;;31.10;15.90;;;;;;;;;;2043257;29;20027;-96
2023/01/02 03:15:10;;;;;;;26.08;13.82;;;;;;;;;;2045090;29;20493;-95
2023/01/02 03:16:14;;;;;;;23.80;13.15;;;;;;;;;;2054716;28;20035;-93
2023/01/02 03:17:59;;;;;;;27.58;17.05;;;;;;;;;;2051516;28;20027;-95
2023/01/02 03:19:10;;;;;;;20.13;12.90;;;;;;;;;;2050239;29;20115;-95
2023/01/02 03:20:19;;;;;;;28.60;16.65;;;;;;;;;;2051946;29;20035;-95
2023/01/02 03:21:28;;;;;;;25.90;17.35;;;;;;;;;;2043748;29;20031;-92
2023/01/02 03:22:33;;;;;;;29.45;17.25;;;;;;;;;;2051378;29;20062;-94
2023/01/02 03:23:43;;;;;;;24.67;16.85;;;;;;;;;;2050926;28;20038;-95
2023/01/02 03:24:47;;;;;;;29.67;15.88;;;;;;;;;;2049228;29;20093;-95
2023/01/02 03:25:48;;;;;;;31.08;16.75;;;;;;;;;;2044591;29;20097;-95
2023/01/02 03:26:51;;;;;;;;;;;;;;;;;;2047714;28;20537;-89
2023/01/02 03:27:54;;;;;;;19.05;12.57;;;;;;;;;;2047320;29;19917;-88
2023/01/02 03:28:59;;;;;;;24.75;15.82;;;;;;;;;;2047159;29;20034;-88
2023/01/02 03:30:06;;;;;;;29.77;18.20;;;;;;;;;;2047526;29;20136;-88
2023/01/02 03:31:14;;;;;;;23.67;15.30;;;;;;;;;;2047938;29;20023;-88
2023/01/02 03:32:55;;;;;;;34.72;17.85;;;;;;;;;;1711079;28;10001752;-88
2023/01/02 03:34:02;;;;;;;24.98;13.93;;;;;;;;;;2025437;29;20033;-88
2023/01/02 03:35:09;;;;;;;29.25;17.73;;;;;;;;;;2040170;29;20047;-88
2023/01/02 03:36:15;;;;;;;31.20;18.50;;;;;;;;;;2047196;29;20427;-89
2023/01/02 03:37:33;;;;;;;34.58;18.52;;;;;;;;;;2047873;29;20110;-88
2023/01/02 03:38:44;;;;;;;37.97;19.70;;;;;;;;;;2049743;28;20065;-88
2023/01/02 03:39:50;;;;;;;36.15;19.58;;;;;;;;;;2049073;28;20573;-86
2023/01/02 03:41:01;;;;;;;37.28;21.95;;;;;;;;;;2049009;29;20042;-88
2023/01/02 03:42:05;;;;;;;39.35;20.20;;;;;;;;;;2047352;28;20055;-88
2023/01/02 03:43:17;;;;;;;40.85;21.50;;;;;;;;;;2047700;29;20114;-88
2023/01/02 03:44:19;;;;;;;42.85;22.52;;;;;;;;;;2047424;28;20043;-89
2023/01/02 03:45:35;;;;;;;45.35;25.63;;;;;;;;;;2047387;29;20039;-88
2023/01/02 03:46:50;;;;;;;47.55;24.83;;;;;;;;;;2047568;29;20494;-87
2023/01/02 03:47:52;;;;;;;42.53;22.83;;;;;;;;;;2047551;28;20034;-89
2023/01/02 03:49:06;;;;;;;43.42;24.77;;;;;;;;;;2047491;29;20042;-88
2023/01/02 03:50:14;;;;;;;36.58;22.10;;;;;;;;;;2047487;28;20092;-88
2023/01/02 03:51:14;;;;;;;44.65;24.23;;;;;;;;;;2048010;29;20046;-89
2023/01/02 03:52:15;;;;;;;;;;;;;;;;;;2048181;29;20031;-88
2023/01/02 03:53:15;;;;;;;30.70;17.47;;;;;;;;;;2047926;29;19911;-88
2023/01/02 03:54:16;;;;;;;;;;;;;;;;;;2048251;29;20094;-86
2023/01/02 03:55:17;;;;;;;30.45;15.88;;;;;;;;;;2048468;29;19914;-88
2023/01/02 03:56:20;;;;;;;;;;;;;;;;;;2048519;28;20058;-88
2023/01/02 03:57:36;;;;;;;31.83;15.90;;;;;;;;;;2048012;29;19910;-88
2023/01/02 03:59:09;;;;;;;28.73;16.38;;;;;;;;;;2047833;29;20119;-88
2023/01/02 04:00:13;;;;;;;27.30;14.70;;;;;;;;;;2031859;29;20463;-88
2023/01/02 04:01:21;;;;;;;37.63;20.98;;;;;;;;;;2039617;29;20031;-88
2023/01/02 04:02:33;;;;;;;31.35;18.77;;;;;;;;;;2047151;29;20040;-88
2023/01/02 04:03:46;;;;;;;39.05;20.33;;;;;;;;;;2047177;29;20486;-88
2023/01/02 04:04:53;;;;;;;31.08;18.75;;;;;;;;;;2040746;29;20192;-88
2023/01/02 04:06:11;;;;;;;28.02;17.45;;;;;;;;;;2047260;29;20125;-88
2023/01/02 04:07:18;;;;;;;24.10;14.15;;;;;;;;;;2046912;28;20027;-88
2023/01/02 04:08:33;;;;;;;24.80;16.23;;;;;;;;;;2047309;29;20031;-88
2023/01/02 04:09:35;;;;;;;24.85;15.35;;;;;;;;;;2047696;29;20035;-88
2023/01/02 04:10:37;;;;;;;26.85;16.52;;;;;;;;;;2039178;29;20043;-87
2023/01/02 04:11:43;;;;;;;30.48;18.35;;;;;;;;;;2039470;29;20065;-87
2023/01/02 04:12:49;;;;;;;33.22;18.55;;;;;;;;;;2039553;29;20063;-88
2023/01/02 04:13:58;;;;;;;31.88;18.48;;;;;;;;;;2051884;28;20030;-87
2023/01/02 04:15:03;;;;;;;25.58;17.65;;;;;;;;;;2057548;28;20039;-87
2023/01/02 04:16:08;;;;;;;32.45;18.33;;;;;;;;;;2050463;29;20422;-88
2023/01/02 04:17:10;;;;;;;33.05;18.17;;;;;;;;;;2047093;28;20038;-88
2023/01/02 04:18:18;;;;;;;32.67;19.02;;;;;;;;;;2047890;29;20023;-88
2023/01/02 04:19:25;;;;;;;27.23;17.75;;;;;;;;;;2049676;28;20474;-89
2023/01/02 04:20:29;;;;;;;30.85;19.13;;;;;;;;;;2048386;29;20035;-88
2023/01/02 04:21:35;;;;;;;33.17;18.63;;;;;;;;;;2039376;29;20031;-87
2023/01/02 04:22:41;;;;;;;32.30;19.40;;;;;;;;;;2039948;29;20068;-87
2023/01/02 04:23:51;;;;;;;29.70;18.10;;;;;;;;;;2039583;29;20478;-88
2023/01/02 04:25:01;;;;;;;34.45;17.52;;;;;;;;;;2040218;29;20043;-88
2023/01/02 04:26:07;;;;;;;26.25;16.35;;;;;;;;;;2038795;29;20261;-88
2023/01/02 04:27:25;;;;;;;31.55;19.10;;;;;;;;;;2039942;29;20039;-88
2023/01/02 04:28:29;;;;;;;24.63;15.50;;;;;;;;;;2046900;29;20023;-88
2023/01/02 04:29:30;;;;;;;28.10;17.70;;;;;;;;;;2039477;29;20074;-88
2023/01/02 04:30:38;;;;;;;31.85;18.75;;;;;;;;;;2047164;29;20074;-88
2023/01/02 04:31:52;;;;;;;32.58;19.75;;;;;;;;;;2047182;28;20033;-88
2023/01/02 04:32:54;;;;;;;30.35;16.83;;;;;;;;;;2047349;29;20110;-87
2023/01/02 04:33:57;;;;;;;32.45;18.20;;;;;;;;;;2047643;29;20046;-87
2023/01/02 04:35:03;;;;;;;27.92;16.60;;;;;;;;;;2046942;28;20475;-88
2023/01/02 04:36:08;;;;;;;30.13;19.10;;;;;;;;;;2047161;29;20027;-88
2023/01/02 04:37:09;;;;;;;29.40;18.67;;;;;;;;;;2046783;29;20027;-87
2023/01/02 04:38:10;;;;;;;;;;;;;;;;;;2047273;28;20069;-88
2023/01/02 04:39:11;;;;;;;24.00;13.02;;;;;;;;;;2046670;29;19921;-86
2023/01/02 04:40:16;;;;;;;;;;;;;;;;;;2047368;28;20035;-87
2023/01/02 04:41:25;;;;;;;25.45;13.18;;;;;;;;;;2047411;28;19917;-87
2023/01/02 04:42:26;;;;;;;28.17;14.73;;;;;;;;;;2046598;28;20481;-87
2023/01/02 04:43:26;;;;;;;;;;;;;;;;;;2039385;29;20027;-87
2023/01/02 04:44:26;;;;;;;21.87;12.50;;;;;;;;;;2046758;29;20060;-88
2023/01/02 04:45:27;;;;;;;;;;;;;;;;;;2047529;29;20529;-87
2023/01/02 04:46:28;;;;;;;29.48;14.73;;;;;;;;;;2046714;28;19918;-88
2023/01/02 04:47:28;;;;;;;30.70;17.35;;;;;;;;;;2038603;29;20032;-88
2023/01/02 04:48:28;;;;;;;;;;;;;;;;;;2047290;29;20094;-88
2023/01/02 04:49:29;;;;;;;27.65;15.40;;;;;;;;;;2054848;28;19941;-88
2023/01/02 04:50:29;;;;;;;;;;;;;;;;;;2055181;28;20027;-86
2023/01/02 04:51:29;;;;;;;28.90;15.02;;;;;;;;;;2047533;28;20069;-88
2023/01/02 04:52:30;;;;;;;;;;;;;;;;;;2048030;28;20035;-86
2023/01/02 04:53:30;;;;;;;26.65;15.25;;;;;;;;;;2047256;28;19981;-87
2023/01/02 04:54:30;;;;;;;;;;;;;;;;;;2047262;29;20469;-88
2023/01/02 04:55:32;;;;;;;25.50;13.20;;;;;;;;;;2038861;29;19949;-87
2023/01/02 04:56:33;;;;;;;35.00;19.27;;;;;;;;;;2047175;29;20347;-87
2023/01/02 04:57:33;;;;;;;;;;;;;;;;;;2047087;29;20055;-86
2023/01/02 04:58:35;;;;;;;32.13;19.77;;;;;;;;;;2046652;29;19911;-87
2023/01/02 04:59:35;;;;;;;31.42;18.13;;;;;;;;;;2046441;29;20093;-87
2023/01/02 05:00:36;;;;;;;;;;;;;;;;;;2047709;29;20035;-87
2023/01/02 05:01:36;;;;;;;33.80;16.92;;;;;;;;;;2046986;28;20325;-88
2023/01/02 05:02:37;;;;;;;;;;;;;;;;;;2047204;29;20031;-86
2023/01/02 05:03:41;;;;;;;32.90;16.55;;;;;;;;;;2047179;28;19917;-87
2023/01/02 05:04:41;;;;;;;38.13;21.05;;;;;;;;;;2047355;29;20054;-88
2023/01/02 05:05:41;;;;;;;;;;;;;;;;;;2047012;29;20031;-86
2023/01/02 05:06:42;;;;;;;28.77;17.75;;;;;;;;;;2046916;29;20400;-88
2023/01/02 05:07:42;;;;;;;38.10;20.52;;;;;;;;;;1708528;28;10001243;-87
2023/01/02 05:08:42;;;;;;;;;;;;;;;;;;2047809;28;20070;-87
2023/01/02 05:09:43;;;;;;;29.67;16.88;;;;;;;;;;2046763;28;19911;-87
2023/01/02 05:10:43;;;;;;;33.15;18.88;;;;;;;;;;2046792;29;20023;-86
2023/01/02 05:11:45;;;;;;;;;;;;;;;;;;1753848;28;10257554;-87
2023/01/02 05:12:45;;;;;;;36.85;18.38;;;;;;;;;;2047593;28;20372;-88
2023/01/02 05:13:46;;;;;;;;;;;;;;;;;;2047134;29;20024;-88
2023/01/02 05:14:46;;;;;;;38.40;17.58;;;;;;;;;;2047090;29;19911;-88
2023/01/02 05:15:52;;;;;;;;;;;;;;;;;;2047050;28;20023;-88
2023/01/02 05:16:53;;;;;;;30.58;17.23;;;;;;;;;;2046691;29;20358;-88
2023/01/02 05:17:53;;;;;;;;;;;;;;;;;;2047781;28;20230;-88
2023/01/02 05:18:53;;;;;;;34.15;19.55;;;;;;;;;;2046561;29;19914;-88
2023/01/02 05:19:54;;;;;;;;;;;;;;;;;;2047143;29;20031;-86
2023/01/02 05:23:50;;;;;;;41.95;22.13;;;;;;;;;;2047433;29;20019;-88
2023/01/02 05:24:50;;;;;;;;;;;;;;;;;;2047752;28;20098;-88
2023/01/02 05:25:51;;;;;;;39.70;22.10;;;;;;;;;;2047269;29;19933;-88
2023/01/02 05:26:51;;;;;;;;;;;;;;;;;;2046650;28;20027;-88
2023/01/02 05:27:53;;;;;;;38.63;21.52;;;;;;;;;;2038698;29;19915;-87
2023/01/02 05:28:54;;;;;;;40.20;24.38;;;;;;;;;;2046601;28;20027;-87
2023/01/02 05:29:54;;;;;;;;;;;;;;;;;;2047003;29;20118;-87
2023/01/02 05:30:58;;;;;;;42.77;24.13;;;;;;;;;;2046508;28;19914;-87
2023/01/02 05:31:58;;;;;;;43.70;23.35;;;;;;;;;;2047278;28;20094;-87
2023/01/02 05:32:59;;;;;;;;;;;;;;;;;;2046921;29;20086;-87
2023/01/02 05:33:59;;;;;;;29.30;16.90;;;;;;;;;;2046524;29;19918;-87
2023/01/02 05:34:59;;;;;;;;;;;;;;;;;;2046967;28;20103;-86
2023/01/02 05:36:00;;;;;;;22.83;15.17;;;;;;;;;;2038541;29;19994;-87
2023/01/02 05:37:00;;;;;;;;;;;;;;;;;;2052628;28;20119;-86
2023/01/02 05:38:01;;;;;;;27.43;16.70;;;;;;;;;;2057086;28;19977;-88
2023/01/02 05:39:01;;;;;;;39.67;21.13;;;;;;;;;;2057274;28;20020;-88
2023/01/02 05:40:02;;;;;;;;;;;;;;;;;;2053927;28;20135;-86
2023/01/02 05:41:04;;;;;;;38.28;18.00;;;;;;;;;;2048773;29;19949;-86
2023/01/02 05:42:04;;;;;;;39.80;21.52;;;;;;;;;;2047657;29;20038;-86
2023/01/02 05:43:04;;;;;;;;;;;;;;;;;;2047895;29;20118;-85
2023/01/02 05:44:07;;;;;;;26.25;18.67;;;;;;;;;;2046509;29;19920;-88
2023/01/02 05:45:08;;;;;;;42.35;21.35;;;;;;;;;;2046587;29;20035;-87
2023/01/02 05:46:11;;;;;;;;;;;;;;;;;;2046735;28;20050;-88
2023/01/02 05:47:11;;;;;;;35.53;20.42;;;;;;;;;;2047253;28;19910;-88
2023/01/02 05:48:11;;;;;;;;;;;;;;;;;;2049153;29;20023;-87
2023/01/02 05:49:12;;;;;;;37.13;16.40;;;;;;;;;;2047894;29;20238;-87
2023/01/02 05:50:12;;;;;;;;;;;;;;;;;;2048452;29;20031;-88
2023/01/02 05:51:16;;;;;;;26.67;16.65;;;;;;;;;;2047658;28;20028;-87
2023/01/02 05:52:17;;;;;;;35.25;20.55;;;;;;;;;;2048040;29;20588;-87
2023/01/02 05:53:17;;;;;;;;;;;;;;;;;;2048125;28;20062;-87
2023/01/02 05:54:18;;;;;;;31.13;18.67;;;;;;;;;;2047913;29;19918;-87
2023/01/02 05:55:18;;;;;;;;;;;;;;;;;;2048547;29;20114;-87
2023/01/02 05:56:29;;;;;;;33.45;17.55;;;;;;;;;;1712918;28;10002693;-87
2023/01/02 05:57:29;;;;;;;28.73;19.27;;;;;;;;;;2057133;28;20023;-87
2023/01/02 05:58:31;;;;;;;;;;;;;;;;;;2059073;28;20027;-87
2023/01/02 05:59:31;;;;;;;29.38;18.90;;;;;;;;;;2058588;28;19924;-86
2023/01/02 06:00:31;;;;;;;;;;;;;;;;;;2056458;29;20095;-86
2023/01/02 06:01:32;;;;;;;27.90;16.85;;;;;;;;;;2052813;29;20171;-86
2023/01/02 06:02:32;;;;;;;43.30;22.20;;;;;;;;;;2052492;29;20035;-87
2023/01/02 06:03:33;;;;;;;;;;;;;;;;;;2056650;28;20505;-87
2023/01/02 06:04:33;;;;;;;40.38;19.92;;;;;;;;;;2047931;29;20004;-87
2023/01/02 06:05:34;;;;;;;;;;;;;;;;;;2048135;29;20435;-86
2023/01/02 06:06:37;;;;;;;26.52;16.95;;;;;;;;;;2048000;28;20389;-86
2023/01/02 06:07:37;;;;;;;35.95;23.02;;;;;;;;;;1705766;29;10001909;-86
2023/01/02 06:08:37;;;;;;;;;;;;;;;;;;2058316;28;20035;-87
2023/01/02 06:09:38;;;;;;;30.95;19.55;;;;;;;;;;2054821;28;20464;-88
2023/01/02 06:10:38;;;;;;;;;;;;;;;;;;2049120;28;20027;-88
2023/01/02 06:11:39;;;;;;;28.58;17.88;;;;;;;;;;2048390;29;19917;-87
2023/01/02 06:12:39;;;;;;;;;;;;;;;;;;2048748;28;20491;-87
2023/01/02 06:13:39;;;;;;;26.90;15.03;;;;;;;;;;2048191;29;19950;-87
2023/01/02 06:14:40;;;;;;;;;;;;;;;;;;2048957;29;20055;-87
2023/01/02 06:15:42;;;;;;;24.65;16.25;;;;;;;;;;2049029;29;20380;-88
2023/01/02 06:16:43;;;;;;;44.60;21.75;;;;;;;;;;2051381;29;20030;-87
2023/01/02 06:17:43;;;;;;;;;;;;;;;;;;2051170;28;20043;-88
2023/01/02 06:18:46;;;;;;;35.70;20.10;;;;;;;;;;2038631;28;19999;-87
2023/01/02 06:19:47;;;;;;;37.65;22.17;;;;;;;;;;2031779;29;20039;-88
2023/01/02 06:20:47;;;;;;;;;;;;;;;;;;2036504;28;20479;-87
2023/01/02 06:21:47;;;;;;;26.27;18.08;;;;;;;;;;2048832;29;20427;-87
2023/01/02 06:22:48;;;;;;;;;;;;;;;;;;2048695;29;20106;-88
2023/01/02 06:23:54;;;;;;;32.58;18.38;;;;;;;;;;2048700;29;19997;-87
2023/01/02 06:24:54;;;;;;;42.78;22.13;;;;;;;;;;2047334;29;20462;-87
2023/01/02 06:25:54;;;;;;;;;;;;;;;;;;2047734;29;20027;-87
2023/01/02 06:26:55;;;;;;;39.07;18.70;;;;;;;;;;2039536;29;19915;-87
2023/01/02 06:27:55;;;;;;;;;;;;;;;;;;2047856;29;20023;-87
2023/01/02 06:28:56;;;;;;;35.47;20.13;;;;;;;;;;2055250;28;20258;-87
2023/01/02 06:29:57;;;;;;;38.92;21.05;;;;;;;;;;2047746;28;20046;-86
2023/01/02 06:31:04;;;;;;;;;;;;;;;;;;2048284;28;20049;-86
2023/01/02 06:32:05;;;;;;;28.88;18.83;;;;;;;;;;2048232;29;19964;-88
2023/01/02 06:33:05;;;;;;;;;;;;;;;;;;2047997;28;20038;-86
2023/01/02 06:34:05;;;;;;;31.47;21.43;;;;;;;;;;2047362;29;19934;-88
2023/01/02 06:35:06;;;;;;;;;;;;;;;;;;2047652;29;20031;-87
2023/01/02 06:36:07;;;;;;;41.50;22.47;;;;;;;;;;2047682;28;19921;-87